📊 Raw Sensor Data
Showing records 46501 to 46525 of 85,071 total
| ID | Distance (ft) | Battery V | Battery A | Int Temp (°F) | Int Humid (%) | Ext Temp (°F) | Solar V | RSSI | SNR | Time Stamp |
|---|---|---|---|---|---|---|---|---|---|---|
| 38583 | 14.1 | 3.91 | -5 | 49 | 42 | 50 | 0.00 | -87 | 7 | 04/23/2025 12:15 AM |
| 38582 | -- | 3.97 | -5 | 50 | 42 | 51 | 0.00 | -86 | 6 | 04/23/2025 12:00 AM |
| 38581 | -- | 3.91 | -5 | 50 | 42 | 51 | 0.00 | -88 | 6 | 04/22/2025 11:45 PM |
| 38580 | -- | 3.91 | -5 | 50 | 43 | 52 | 0.00 | -81 | 7 | 04/22/2025 11:31 PM |
| 38579 | -- | 3.97 | -5 | 51 | 43 | 52 | 0.00 | -84 | 8 | 04/22/2025 11:15 PM |
| 38578 | -- | 3.91 | -5 | 51 | 43 | 52 | 0.00 | -85 | 8 | 04/22/2025 11:00 PM |
| 38577 | -- | 3.97 | -5 | 52 | 43 | 53 | 0.00 | -87 | 7 | 04/22/2025 10:45 PM |
| 38576 | -- | 3.92 | -5 | 53 | 43 | 54 | 0.00 | -82 | 7 | 04/22/2025 10:30 PM |
| 38575 | -- | 3.92 | -5 | 54 | 44 | 55 | 0.00 | -81 | 8 | 04/22/2025 10:15 PM |
| 38574 | -- | 3.92 | -5 | 54 | 44 | 56 | 0.00 | -81 | 7 | 04/22/2025 10:01 PM |
| 38573 | -- | 3.92 | -5 | 55 | 44 | 56 | 0.00 | -82 | 8 | 04/22/2025 09:45 PM |
| 38572 | -- | 3.98 | -5 | 55 | 45 | 57 | 0.10 | -82 | 7 | 04/22/2025 09:30 PM |
| 38571 | -- | 3.98 | -5 | 56 | 46 | 57 | 0.00 | -88 | 7 | 04/22/2025 09:16 PM |
| 38570 | -- | 3.92 | -5 | 56 | 46 | 57 | 0.00 | -85 | 8 | 04/22/2025 09:00 PM |
| 38569 | -- | 3.92 | -5 | 57 | 47 | 58 | 0.00 | -86 | 7 | 04/22/2025 08:45 PM |
| 38568 | -- | 3.92 | -5 | 58 | 49 | 59 | 0.00 | -84 | 8 | 04/22/2025 08:30 PM |
| 38567 | -- | 3.92 | -5 | 60 | 50 | 60 | 0.00 | -95 | 5 | 04/22/2025 08:15 PM |
| 38566 | -- | 3.92 | -5 | 62 | 51 | 61 | 0.80 | -83 | 8 | 04/22/2025 08:00 PM |
| 38565 | -- | 3.92 | -6 | 65 | 52 | 62 | 4.50 | -82 | 8 | 04/22/2025 07:45 PM |
| 38564 | -- | 4.00 | 0 | 69 | 51 | 65 | 4.50 | -79 | 9 | 04/22/2025 07:30 PM |
| 38563 | -- | 3.96 | 8 | 73 | 51 | 68 | 4.50 | -85 | 8 | 04/22/2025 07:15 PM |
| 38562 | -- | 3.97 | -10 | 76 | 50 | 70 | 4.50 | -83 | 8 | 04/22/2025 07:00 PM |
| 38561 | -- | 4.06 | 54 | 82 | 48 | 74 | 4.50 | -80 | 8 | 04/22/2025 06:30 PM |
| 38560 | -- | 3.97 | 6 | 83 | 48 | 76 | 5.10 | -84 | 8 | 04/22/2025 06:15 PM |
| 38559 | -- | 3.97 | 0 | 85 | 47 | 78 | 5.10 | -84 | 8 | 04/22/2025 06:00 PM |